Dunmow, United Kingdom
Current Conditions -  °F | °C
As of 9:50 PM on Saturday 25 Oct 2014 (Local Time) from EGSS Reporting Station
Overcast Overcast  
Wind Chill: 54°   Ceiling: 3600
Heat Index: 54°   Visibility: 6mi
Dew Point: 48°   Wind: 10mph
Humidity: 82%   Direction: 220°SW
Pressure: 30.12"   Gusts: NA
Location:  51.87°N, 0.36°E
Report Text: EGSS 252050Z 22009KT 9999 OVC036 12/09 Q1020
Loading
Personal Weather Stations






























Interactive Weather Map New forecast layout! Learn more

10-Day Weather Forecast

Advertisements
Track Severe Weather on mobile